Rome, Italy
Current Conditions -  °F | °C
As of 3:45 AM on Monday 22 Dec 2014 (Local Time) from LIRA Reporting Station
Clear Clear  
Wind Chill:   Ceiling: Unl
Heat Index:   Visibility: 6mi
Dew Point:   Wind: 0mph
Humidity: 71%   Direction: NA
Pressure: 30.42"   Gusts: NA
Location:  41.9°N, 12.48°E
Report Text: LIRA 220245Z 00000KT CAVOK 07/02 Q1030
Loading
Personal Weather Stations






























Interactive Weather Map New forecast layout! Learn more

10-Day Weather Forecast

Advertisements
Track Severe Weather on mobile